createdAt,value
2023-02-07T00:01:22.731Z,102690.31
2023-02-07T00:03:49.617Z,102698.16
2023-02-07T00:06:25.904Z,102702.59
2023-02-07T00:08:52.877Z,102701.88
2023-02-07T00:11:23.124Z,102715.88
2023-02-07T00:13:53.070Z,102713.22
2023-02-07T00:16:20.588Z,102720.34
2023-02-07T00:18:47.649Z,102728.13
2023-02-07T00:21:17.159Z,102733.38
2023-02-07T00:23:44.944Z,102728.09
2023-02-07T00:26:13.509Z,102719.34
2023-02-07T00:28:40.165Z,102724.47
2023-02-07T00:31:16.518Z,102735.69
2023-02-07T00:33:45.007Z,102721.59
2023-02-07T00:36:14.817Z,102721.56
2023-02-07T00:38:41.720Z,102725.03
2023-02-07T00:41:09.000Z,102733.72
2023-02-07T00:43:35.781Z,102732.88
2023-02-07T00:46:05.561Z,102738.91
2023-02-07T00:48:33.012Z,102738.03
2023-02-07T00:51:00.596Z,102732.81
2023-02-07T00:53:28.468Z,102735.41
2023-02-07T00:55:55.320Z,102736.22
2023-02-07T00:58:22.089Z,102730.03
2023-02-07T01:00:49.431Z,102728.28
2023-02-07T01:03:16.388Z,102727.22
2023-02-07T01:05:43.168Z,102720.94
2023-02-07T01:08:09.829Z,102720.06
2023-02-07T01:10:38.801Z,102723.59
2023-02-07T01:13:05.335Z,102728.88
2023-02-07T01:15:32.286Z,102729.69
2023-02-07T01:17:58.866Z,102729.69
2023-02-07T01:20:25.494Z,102722.78
2023-02-07T01:22:52.694Z,102721.09
2023-02-07T01:25:19.288Z,102717.69
2023-02-07T01:27:45.917Z,102718.53
2023-02-07T01:30:13.032Z,102708.03
2023-02-07T01:32:39.584Z,102707.97
2023-02-07T01:35:06.699Z,102700.19
2023-02-07T01:37:33.550Z,102705.50
2023-02-07T01:40:00.718Z,102686.41
2023-02-07T01:42:28.805Z,102702.16
2023-02-07T01:44:55.306Z,102683.84
2023-02-07T01:47:23.456Z,102688.16
2023-02-07T01:49:53.033Z,102681.13
2023-02-07T01:52:29.517Z,102669.75
2023-02-07T01:55:01.433Z,102677.47
2023-02-07T01:57:28.610Z,102684.38
2023-02-07T01:59:58.336Z,102680.50
2023-02-07T02:02:30.919Z,102678.66
2023-02-07T02:04:59.074Z,102672.34
2023-02-07T02:07:28.687Z,102671.56
2023-02-07T02:09:55.467Z,102669.84
2023-02-07T02:12:43.530Z,102667.13
2023-02-07T02:15:16.005Z,102668.78
2023-02-07T02:17:57.914Z,102667.03
2023-02-07T02:20:55.110Z,102673.81
2023-02-07T02:23:48.989Z,102666.75
2023-02-07T02:26:27.611Z,102677.94
2023-02-07T02:29:07.392Z,102675.72
2023-02-07T02:32:09.455Z,102671.97
2023-02-07T02:34:47.876Z,102673.41
2023-02-07T02:37:54.189Z,102665.25
2023-02-07T02:40:34.208Z,102668.66
2023-02-07T02:43:46.627Z,102676.38
2023-02-07T02:46:25.393Z,102676.50
2023-02-07T02:48:53.557Z,102676.69
2023-02-07T02:51:20.168Z,102674.28
2023-02-07T02:53:57.844Z,102673.63
2023-02-07T02:56:27.140Z,102671.75
2023-02-07T02:59:05.879Z,102660.13
2023-02-07T03:01:38.521Z,102663.31
2023-02-07T03:04:34.277Z,102655.28
2023-02-07T03:07:19.141Z,102663.44
2023-02-07T03:10:00.195Z,102663.63
2023-02-07T03:12:48.080Z,102672.66
2023-02-07T03:15:35.729Z,102669.25
2023-02-07T03:18:11.814Z,102672.56
2023-02-07T03:20:52.839Z,102672.53
2023-02-07T03:23:21.367Z,102676.16
2023-02-07T03:25:51.690Z,102668.41
2023-02-07T03:28:20.701Z,102676.22
2023-02-07T03:30:51.285Z,102679.63
2023-02-07T03:33:19.338Z,102671.00
2023-02-07T03:35:56.793Z,102671.13
2023-02-07T03:38:24.453Z,102675.63
2023-02-07T03:41:03.245Z,102676.56
2023-02-07T03:43:32.404Z,102679.28
2023-02-07T03:45:59.541Z,102666.97
2023-02-07T03:48:26.191Z,102669.25
2023-02-07T03:50:52.999Z,102663.81
2023-02-07T03:53:21.020Z,102665.31
2023-02-07T03:55:47.817Z,102661.56
2023-02-07T03:58:14.574Z,102662.06
2023-02-07T04:00:41.213Z,102658.56
2023-02-07T04:03:07.801Z,102662.19
2023-02-07T04:05:34.727Z,102667.88
2023-02-07T04:08:01.421Z,102658.59
2023-02-07T04:10:28.155Z,102657.91
2023-02-07T04:12:54.740Z,102650.25
2023-02-07T04:15:21.490Z,102643.38
2023-02-07T04:17:48.051Z,102646.94
2023-02-07T04:20:14.768Z,102650.41
2023-02-07T04:22:41.361Z,102659.25
2023-02-07T04:25:08.386Z,102661.94
2023-02-07T04:27:34.996Z,102661.19
2023-02-07T04:30:01.596Z,102662.94
2023-02-07T04:32:28.215Z,102646.53
2023-02-07T04:34:54.854Z,102639.50
2023-02-07T04:37:21.412Z,102636.06
2023-02-07T04:39:48.056Z,102637.91
2023-02-07T04:42:14.625Z,102643.25
2023-02-07T04:44:41.191Z,102648.63
2023-02-07T04:47:07.773Z,102653.06
2023-02-07T04:49:34.860Z,102665.31
2023-02-07T04:52:01.653Z,102657.63
2023-02-07T04:54:28.287Z,102666.44
2023-02-07T04:56:54.904Z,102666.38
2023-02-07T04:59:21.477Z,102667.19
2023-02-07T05:01:48.032Z,102671.56
2023-02-07T05:04:15.951Z,102674.97
2023-02-07T05:06:43.037Z,102682.00
2023-02-07T05:09:09.606Z,102681.25
2023-02-07T05:11:36.233Z,102686.53
2023-02-07T05:14:02.808Z,102696.25
2023-02-07T05:16:29.453Z,102698.94
2023-02-07T05:18:56.033Z,102701.59
2023-02-07T05:21:22.701Z,102705.09
2023-02-07T05:23:49.330Z,102710.28
2023-02-07T05:26:17.177Z,102723.31
2023-02-07T05:28:44.147Z,102717.16
2023-02-07T05:31:10.857Z,102712.72
2023-02-07T05:33:37.472Z,102712.63
2023-02-07T05:36:05.102Z,102722.94
2023-02-07T05:38:32.727Z,102714.22
2023-02-07T05:40:59.850Z,102722.91
2023-02-07T05:43:26.515Z,102715.00
2023-02-07T05:45:53.092Z,102724.56
2023-02-07T05:48:19.694Z,102716.56
2023-02-07T05:50:46.285Z,102724.41
2023-02-07T05:53:13.069Z,102722.63
2023-02-07T05:55:40.045Z,102719.09
2023-02-07T05:58:06.814Z,102719.09
2023-02-07T06:00:33.753Z,102714.63
2023-02-07T06:03:00.319Z,102721.50
2023-02-07T06:05:31.630Z,102724.09
2023-02-07T06:07:58.517Z,102717.00
2023-02-07T06:10:25.246Z,102732.66
2023-02-07T06:12:51.825Z,102726.53
2023-02-07T06:15:18.619Z,102727.31
2023-02-07T06:17:45.223Z,102730.66
2023-02-07T06:20:12.199Z,102737.59
2023-02-07T06:22:39.002Z,102726.13
2023-02-07T06:25:05.969Z,102719.94
2023-02-07T06:27:32.547Z,102725.03
2023-02-07T06:29:59.094Z,102723.34
2023-02-07T06:32:25.784Z,102730.31
2023-02-07T06:34:52.456Z,102725.97
2023-02-07T06:37:19.020Z,102716.38
2023-02-07T06:39:45.595Z,102723.34
2023-02-07T06:42:12.304Z,102721.63
2023-02-07T06:44:38.829Z,102718.28
2023-02-07T06:47:05.548Z,102709.69
2023-02-07T06:49:32.255Z,102700.19
2023-02-07T06:51:58.937Z,102704.63
2023-02-07T06:54:25.502Z,102708.25
2023-02-07T06:56:52.073Z,102698.81
2023-02-07T06:59:18.682Z,102701.56
2023-02-07T07:01:46.774Z,102710.41
2023-02-07T07:04:14.522Z,102703.59
2023-02-07T07:06:41.439Z,102700.31
2023-02-07T07:09:08.029Z,102703.06
2023-02-07T07:11:35.507Z,102697.19
2023-02-07T07:14:02.704Z,102698.25
2023-02-07T07:16:29.387Z,102703.69
2023-02-07T07:18:55.954Z,102696.06
2023-02-07T07:21:22.550Z,102699.78
2023-02-07T07:23:49.131Z,102689.66
2023-02-07T07:26:15.799Z,102691.63
2023-02-07T07:28:42.372Z,102691.03
2023-02-07T07:31:09.387Z,102684.28
2023-02-07T07:33:36.879Z,102684.53
2023-02-07T07:36:04.156Z,102684.84
2023-02-07T07:38:31.553Z,102687.69
2023-02-07T07:40:58.815Z,102698.50
2023-02-07T07:43:25.873Z,102694.38
2023-02-07T07:45:57.432Z,102688.47
2023-02-07T07:48:24.684Z,102688.63
2023-02-07T07:50:52.186Z,102688.84
2023-02-07T07:53:19.765Z,102687.31
2023-02-07T07:55:55.208Z,102698.03
2023-02-07T07:58:23.348Z,102685.97
2023-02-07T08:00:50.447Z,102684.47
2023-02-07T08:03:19.226Z,102682.03
2023-02-07T08:05:46.962Z,102676.94
2023-02-07T08:08:14.222Z,102678.06
2023-02-07T08:10:41.337Z,102679.09
2023-02-07T08:13:08.545Z,102683.69
2023-02-07T08:15:35.142Z,102677.75
2023-02-07T08:18:01.771Z,102669.16
2023-02-07T08:20:28.497Z,102671.94
2023-02-07T08:22:55.040Z,102674.78
2023-02-07T08:25:21.572Z,102674.06
2023-02-07T08:27:48.190Z,102668.06
2023-02-07T08:30:15.770Z,102684.88
2023-02-07T08:32:42.745Z,102678.84
2023-02-07T08:35:09.723Z,102684.28
2023-02-07T08:37:36.653Z,102680.88
2023-02-07T08:40:05.270Z,102673.09
2023-02-07T08:42:31.943Z,102681.13
2023-02-07T08:44:58.538Z,102680.31
2023-02-07T08:47:25.349Z,102685.72
2023-02-07T08:49:51.982Z,102677.00
2023-02-07T08:52:18.624Z,102682.34
2023-02-07T08:54:45.237Z,102680.66
2023-02-07T08:57:11.888Z,102684.22
2023-02-07T08:59:38.463Z,102680.75
2023-02-07T09:02:05.113Z,102676.38
2023-02-07T09:04:31.676Z,102680.78
2023-02-07T09:06:58.357Z,102675.47
2023-02-07T09:09:25.212Z,102679.81
2023-02-07T09:11:51.922Z,102676.19
2023-02-07T09:14:18.758Z,102670.69
2023-02-07T09:16:45.455Z,102662.44
2023-02-07T09:19:12.082Z,102656.78
2023-02-07T09:21:38.771Z,102662.72
2023-02-07T09:24:05.548Z,102661.44
2023-02-07T09:26:34.360Z,102655.44
2023-02-07T09:29:01.081Z,102660.69
2023-02-07T09:31:28.199Z,102663.13
2023-02-07T09:33:54.850Z,102659.34
2023-02-07T09:36:24.814Z,102665.53
2023-02-07T09:38:51.789Z,102649.56
2023-02-07T09:41:47.366Z,102647.28
2023-02-07T09:44:17.178Z,102648.66
2023-02-07T09:46:52.191Z,102640.69
2023-02-07T09:49:35.686Z,102639.56
2023-02-07T09:52:05.693Z,102638.69
2023-02-07T09:54:42.190Z,102633.25
2023-02-07T09:57:16.517Z,102633.22
2023-02-07T09:59:49.640Z,102625.63
2023-02-07T10:02:25.103Z,102636.78
2023-02-07T10:04:56.673Z,102619.19
2023-02-07T10:07:23.648Z,102618.84
2023-02-07T10:09:50.233Z,102626.16
2023-02-07T10:12:42.751Z,102622.72
2023-02-07T10:15:20.259Z,102619.72
2023-02-07T10:18:17.361Z,102616.16
2023-02-07T10:20:55.377Z,102603.88
2023-02-07T10:23:39.625Z,102610.88
2023-02-07T10:26:36.864Z,102602.44
2023-02-07T10:29:18.098Z,102607.06
2023-02-07T10:31:49.113Z,102605.25
2023-02-07T10:34:21.871Z,102607.53
2023-02-07T10:36:51.011Z,102602.41
2023-02-07T10:39:39.332Z,102604.38
2023-02-07T10:42:05.953Z,102595.09
2023-02-07T10:44:32.946Z,102600.72
2023-02-07T10:47:02.163Z,102589.59
2023-02-07T10:49:32.009Z,102577.53
2023-02-07T10:52:10.689Z,102582.84
2023-02-07T10:54:54.242Z,102584.84
2023-02-07T10:57:22.028Z,102581.56
2023-02-07T10:59:50.634Z,102588.16
2023-02-07T11:02:29.346Z,102588.94
2023-02-07T11:04:57.200Z,102591.63
2023-02-07T11:07:25.070Z,102585.31
2023-02-07T11:09:51.682Z,102578.88
2023-02-07T11:12:22.698Z,102582.69
2023-02-07T11:15:02.693Z,102572.53
2023-02-07T11:17:29.838Z,102577.84
2023-02-07T11:19:57.074Z,102579.72
2023-02-07T11:22:24.879Z,102579.38
2023-02-07T11:25:00.261Z,102577.41
2023-02-07T11:27:27.449Z,102559.81
2023-02-07T11:30:00.194Z,102570.41
2023-02-07T11:32:28.503Z,102568.16
2023-02-07T11:35:06.460Z,102567.38
2023-02-07T11:37:38.938Z,102559.19
2023-02-07T11:40:31.310Z,102557.56
2023-02-07T11:43:12.940Z,102556.72
2023-02-07T11:45:46.425Z,102556.00
2023-02-07T11:48:24.301Z,102545.72
2023-02-07T11:50:56.080Z,102551.19
2023-02-07T11:53:27.102Z,102549.50
2023-02-07T11:55:55.525Z,102550.25
2023-02-07T11:58:41.205Z,102543.09
2023-02-07T12:01:08.703Z,102542.75
2023-02-07T12:03:45.083Z,102542.25
2023-02-07T12:06:18.187Z,102532.22
2023-02-07T12:08:45.829Z,102527.38
2023-02-07T12:11:38.223Z,102523.22
2023-02-07T12:14:21.053Z,102521.22
2023-02-07T12:16:55.051Z,102517.44
2023-02-07T12:19:28.257Z,102515.53
2023-02-07T12:22:18.077Z,102518.00
2023-02-07T12:25:14.097Z,102523.53
2023-02-07T12:27:44.917Z,102518.13
2023-02-07T12:30:26.153Z,102521.16
2023-02-07T12:32:55.424Z,102510.19
2023-02-07T12:35:51.946Z,102512.88
2023-02-07T12:38:26.542Z,102512.78
2023-02-07T12:41:12.684Z,102511.41
2023-02-07T12:43:46.051Z,102512.81
2023-02-07T12:46:29.246Z,102512.84
2023-02-07T12:49:04.446Z,102512.72
2023-02-07T12:52:03.918Z,102506.91
2023-02-07T12:55:09.214Z,102496.41
2023-02-07T12:57:45.478Z,102495.09
2023-02-07T13:00:27.076Z,102499.44
2023-02-07T13:03:33.228Z,102494.91
2023-02-07T13:06:30.716Z,102504.56
2023-02-07T13:09:10.007Z,102503.13
2023-02-07T13:12:09.005Z,102504.38
2023-02-07T13:15:21.721Z,102498.06
2023-02-07T13:18:02.105Z,102504.47
2023-02-07T13:20:40.591Z,102496.50
2023-02-07T13:23:21.348Z,102500.28
2023-02-07T13:25:53.288Z,102494.09
2023-02-07T13:28:26.590Z,102491.81
2023-02-07T13:30:54.401Z,102496.81
2023-02-07T13:33:34.924Z,102496.91
2023-02-07T13:36:28.178Z,102499.22
2023-02-07T13:38:59.255Z,102492.19
2023-02-07T13:41:36.858Z,102498.44
2023-02-07T13:44:11.080Z,102486.09
2023-02-07T13:47:15.864Z,102486.47
2023-02-07T13:49:58.790Z,102491.59
2023-02-07T13:52:34.799Z,102491.69
2023-02-07T13:55:38.614Z,102484.25
2023-02-07T13:58:53.154Z,102487.56
2023-02-07T14:01:32.397Z,102495.00
2023-02-07T14:04:06.798Z,102496.63
2023-02-07T14:06:37.134Z,102495.75
2023-02-07T14:09:17.464Z,102489.41
2023-02-07T14:11:55.981Z,102495.13
2023-02-07T14:14:25.220Z,102487.03
2023-02-07T14:16:57.974Z,102487.91
2023-02-07T14:19:54.737Z,102490.06
2023-02-07T14:22:48.775Z,102489.75
2023-02-07T14:25:39.512Z,102498.59
2023-02-07T14:28:09.473Z,102510.97
2023-02-07T14:30:49.656Z,102512.63
2023-02-07T14:33:36.498Z,102517.34
2023-02-07T14:36:17.271Z,102514.44
2023-02-07T14:39:18.800Z,102515.13
2023-02-07T14:41:48.078Z,102523.97
2023-02-07T14:44:23.532Z,102529.44
2023-02-07T14:46:56.033Z,102523.59
2023-02-07T14:49:29.259Z,102525.19
2023-02-07T14:52:11.254Z,102521.94
2023-02-07T14:54:53.002Z,102525.09
2023-02-07T14:57:56.529Z,102528.09
2023-02-07T15:00:49.287Z,102525.84
2023-02-07T15:03:21.371Z,102523.06
2023-02-07T15:06:01.817Z,102527.78
2023-02-07T15:08:32.511Z,102534.88
2023-02-07T15:11:05.364Z,102540.19
2023-02-07T15:13:39.190Z,102542.63
2023-02-07T15:16:06.850Z,102548.25
2023-02-07T15:18:42.564Z,102547.72
2023-02-07T15:21:34.752Z,102546.78
2023-02-07T15:24:27.284Z,102557.09
2023-02-07T15:26:58.350Z,102549.69
2023-02-07T15:29:28.872Z,102557.06
2023-02-07T15:31:55.802Z,102554.59
2023-02-07T15:34:31.695Z,102555.66
2023-02-07T15:37:05.336Z,102563.09
2023-02-07T15:39:32.052Z,102557.50
2023-02-07T15:41:58.878Z,102561.84
2023-02-07T15:44:30.496Z,102560.38
2023-02-07T15:47:02.375Z,102562.66
2023-02-07T15:49:34.736Z,102565.25
2023-02-07T15:52:25.105Z,102565.88
2023-02-07T15:54:54.459Z,102580.31
2023-02-07T15:57:29.482Z,102578.00
2023-02-07T16:00:02.150Z,102585.03
2023-02-07T16:02:31.735Z,102584.88
2023-02-07T16:05:16.512Z,102589.06
2023-02-07T16:07:47.792Z,102587.06
2023-02-07T16:10:20.404Z,102586.63
2023-02-07T16:12:53.031Z,102590.59
2023-02-07T16:15:30.418Z,102590.53
2023-02-07T16:17:57.046Z,102591.22
2023-02-07T16:20:24.891Z,102593.41
2023-02-07T16:22:52.190Z,102595.31
2023-02-07T16:25:26.379Z,102603.50
2023-02-07T16:27:53.354Z,102593.88
2023-02-07T16:30:24.903Z,102594.72
2023-02-07T16:32:51.506Z,102598.63
2023-02-07T16:35:21.127Z,102601.63
2023-02-07T16:37:48.232Z,102603.44
2023-02-07T16:40:15.263Z,102600.88
2023-02-07T16:42:42.456Z,102619.63
2023-02-07T16:45:21.875Z,102618.81
2023-02-07T16:47:48.636Z,102616.19
2023-02-07T16:50:20.909Z,102613.50
2023-02-07T16:52:52.078Z,102613.53
2023-02-07T16:55:20.699Z,102610.03
2023-02-07T16:57:49.191Z,102614.50
2023-02-07T17:00:26.567Z,102620.81
2023-02-07T17:02:53.933Z,102611.16
2023-02-07T17:05:24.079Z,102607.72
2023-02-07T17:07:51.165Z,102602.47
2023-02-07T17:10:31.412Z,102605.09
2023-02-07T17:12:58.092Z,102600.69
2023-02-07T17:15:24.665Z,102604.19
2023-02-07T17:17:53.185Z,102614.75
2023-02-07T17:20:26.880Z,102622.66
2023-02-07T17:22:54.008Z,102620.00
2023-02-07T17:25:22.299Z,102619.13
2023-02-07T17:27:48.954Z,102611.16
2023-02-07T17:30:33.373Z,102610.28
2023-02-07T17:32:59.952Z,102614.66
2023-02-07T17:35:26.517Z,102619.03
2023-02-07T17:37:53.600Z,102627.78
2023-02-07T17:40:20.078Z,102631.31
2023-02-07T17:42:46.656Z,102623.41
2023-02-07T17:45:13.210Z,102615.50
2023-02-07T17:47:39.828Z,102620.78
2023-02-07T17:50:08.119Z,102622.56
2023-02-07T17:52:35.002Z,102631.28
2023-02-07T17:55:01.538Z,102628.59
2023-02-07T17:57:28.092Z,102626.81
2023-02-07T17:59:54.669Z,102629.47
2023-02-07T18:02:21.274Z,102624.16
2023-02-07T18:04:47.836Z,102627.69
2023-02-07T18:07:14.672Z,102625.88
2023-02-07T18:09:41.299Z,102642.56
2023-02-07T18:12:08.104Z,102640.78
2023-02-07T18:14:34.683Z,102639.88
2023-02-07T18:17:01.296Z,102649.47
2023-02-07T18:19:28.177Z,102653.84
2023-02-07T18:21:54.820Z,102646.84
2023-02-07T18:24:22.164Z,102651.22
2023-02-07T18:26:48.997Z,102652.13
2023-02-07T18:29:16.613Z,102647.72
2023-02-07T18:31:43.740Z,102652.03
2023-02-07T18:34:10.485Z,102644.13
2023-02-07T18:36:40.662Z,102651.13
2023-02-07T18:39:09.306Z,102647.59
2023-02-07T18:41:36.653Z,102655.47
2023-02-07T18:44:03.941Z,102655.47
2023-02-07T18:46:31.999Z,102657.22
2023-02-07T18:48:59.220Z,102654.53
2023-02-07T18:51:27.026Z,102651.88
2023-02-07T18:53:56.768Z,102655.34
2023-02-07T18:56:25.698Z,102664.06
2023-02-07T18:58:53.216Z,102659.66
2023-02-07T19:01:20.862Z,102656.19
2023-02-07T19:03:54.441Z,102668.41
2023-02-07T19:06:23.151Z,102672.75
2023-02-07T19:08:50.215Z,102662.19
2023-02-07T19:11:17.267Z,102671.84
2023-02-07T19:13:43.973Z,102672.72
2023-02-07T19:16:16.015Z,102679.72
2023-02-07T19:18:42.571Z,102675.34
2023-02-07T19:21:12.313Z,102672.66
2023-02-07T19:23:39.989Z,102671.78
2023-02-07T19:26:07.470Z,102667.31
2023-02-07T19:28:35.592Z,102665.53
2023-02-07T19:31:07.323Z,102663.78
2023-02-07T19:33:35.620Z,102657.56
2023-02-07T19:36:11.195Z,102663.72
2023-02-07T19:38:38.588Z,102664.56
2023-02-07T19:41:06.425Z,102669.78
2023-02-07T19:43:33.660Z,102668.88
2023-02-07T19:46:00.299Z,102665.34
2023-02-07T19:48:27.342Z,102675.00
2023-02-07T19:51:00.554Z,102672.31
2023-02-07T19:53:28.655Z,102674.94
2023-02-07T19:56:02.037Z,102675.72
2023-02-07T19:58:30.305Z,102670.44
2023-02-07T20:00:57.928Z,102669.59
2023-02-07T20:03:25.653Z,102662.56
2023-02-07T20:05:53.051Z,102666.94
2023-02-07T20:08:20.767Z,102667.75
2023-02-07T20:10:48.447Z,102665.06
2023-02-07T20:13:15.980Z,102674.72
2023-02-07T20:15:47.188Z,102672.94
2023-02-07T20:18:14.210Z,102687.78
2023-02-07T20:20:47.149Z,102690.38
2023-02-07T20:23:14.729Z,102693.88
2023-02-07T20:25:41.393Z,102698.19
2023-02-07T20:28:08.738Z,102697.19
2023-02-07T20:30:36.324Z,102698.03
2023-02-07T20:33:03.002Z,102703.16
2023-02-07T20:35:29.622Z,102699.56
2023-02-07T20:37:56.764Z,102698.63
2023-02-07T20:40:23.345Z,102694.19
2023-02-07T20:42:49.909Z,102701.16
2023-02-07T20:45:16.844Z,102708.06
2023-02-07T20:47:43.464Z,102703.38
2023-02-07T20:50:10.102Z,102710.25
2023-02-07T20:52:39.766Z,102707.50
2023-02-07T20:55:07.017Z,102711.78
2023-02-07T20:57:33.532Z,102707.41
2023-02-07T21:00:00.117Z,102717.91
2023-02-07T21:02:26.758Z,102719.53
2023-02-07T21:04:53.362Z,102720.25
2023-02-07T21:07:19.932Z,102722.69
2023-02-07T21:09:46.594Z,102717.34
2023-02-07T21:12:13.296Z,102723.31
2023-02-07T21:14:40.531Z,102721.50
2023-02-07T21:17:07.490Z,102722.31
2023-02-07T21:19:35.792Z,102722.09
2023-02-07T21:22:02.505Z,102724.69
2023-02-07T21:24:29.119Z,102733.38
2023-02-07T21:26:56.196Z,102729.84
2023-02-07T21:29:23.336Z,102726.38
2023-02-07T21:31:50.813Z,102734.88
2023-02-07T21:34:21.116Z,102729.53
2023-02-07T21:36:49.148Z,102737.31
2023-02-07T21:39:16.629Z,102737.25
2023-02-07T21:41:44.987Z,102738.94
2023-02-07T21:44:13.049Z,102738.94
2023-02-07T21:46:41.801Z,102735.38
2023-02-07T21:49:14.586Z,102740.44
2023-02-07T21:51:45.660Z,102734.81
2023-02-07T21:54:12.248Z,102735.50
2023-02-07T21:56:40.966Z,102740.47
2023-02-07T21:59:14.094Z,102745.50
2023-02-07T22:01:41.282Z,102741.84
2023-02-07T22:04:12.237Z,102739.09
2023-02-07T22:06:43.296Z,102744.31
2023-02-07T22:09:13.367Z,102736.47
2023-02-07T22:11:40.566Z,102743.41
2023-02-07T22:14:07.290Z,102746.03
2023-02-07T22:16:34.934Z,102737.38
2023-02-07T22:19:04.181Z,102742.59
2023-02-07T22:21:33.661Z,102739.22
2023-02-07T22:24:00.701Z,102736.69
2023-02-07T22:26:28.524Z,102739.47
2023-02-07T22:28:57.395Z,102738.66
2023-02-07T22:31:26.982Z,102747.41
2023-02-07T22:33:55.034Z,102743.06
2023-02-07T22:36:24.953Z,102743.09
2023-02-07T22:38:51.506Z,102737.00
2023-02-07T22:41:18.329Z,102738.69
2023-02-07T22:43:45.072Z,102737.78
2023-02-07T22:46:15.339Z,102740.22
2023-02-07T22:48:42.300Z,102746.22
2023-02-07T22:51:14.696Z,102743.66
2023-02-07T22:53:41.952Z,102744.56
2023-02-07T22:56:09.403Z,102742.81
2023-02-07T22:58:36.900Z,102748.81
2023-02-07T23:01:05.111Z,102744.22
2023-02-07T23:03:32.375Z,102732.81
2023-02-07T23:06:03.989Z,102731.91
2023-02-07T23:08:30.645Z,102735.09
2023-02-07T23:10:57.223Z,102739.19
2023-02-07T23:13:23.851Z,102743.56
2023-02-07T23:15:50.388Z,102737.41
2023-02-07T23:18:16.976Z,102737.28
2023-02-07T23:20:44.888Z,102740.66
2023-02-07T23:23:12.619Z,102740.56
2023-02-07T23:25:43.872Z,102741.38
2023-02-07T23:28:10.859Z,102742.25
2023-02-07T23:30:37.974Z,102740.50
2023-02-07T23:33:06.307Z,102739.75
2023-02-07T23:35:33.440Z,102741.38
2023-02-07T23:38:01.797Z,102742.16
2023-02-07T23:40:29.542Z,102736.13
2023-02-07T23:42:56.249Z,102733.47
2023-02-07T23:45:22.950Z,102736.03
2023-02-07T23:47:49.549Z,102737.75
2023-02-07T23:50:16.239Z,102741.03
2023-02-07T23:52:42.805Z,102742.44
2023-02-07T23:55:09.362Z,102748.47
2023-02-07T23:57:36.053Z,102753.75
